Time;durP1;ratioP1;P1;durP2;ratioP2;P2;SDS_P1;SDS_P2;PMS_P1;PMS_P2;Temp;Humidity;BMP_temperature;BMP_pressure;BME280_temperature;BME280_humidity;BME280_pressure;Samples;Min_cycle;Max_cycle;Signal;HPM_P1;HPM_P2
2021/03/29 00:01:56;;;;;;;10.65;5.80;;;15.70;45.80;;;;;;4999375;28;20042;-72
2021/03/29 00:04:22;;;;;;;7.10;5.18;;;15.80;45.90;;;;;;4997413;28;20132;-71
2021/03/29 00:06:48;;;;;;;6.70;5.00;;;15.80;45.70;;;;;;5003352;28;20134;-71
2021/03/29 00:09:16;;;;;;;8.63;5.80;;;15.70;45.70;;;;;;4991263;28;20109;-72
2021/03/29 00:11:43;;;;;;;8.30;5.15;;;15.70;45.80;;;;;;5001761;28;20056;-71
2021/03/29 00:14:11;;;;;;;7.18;5.20;;;15.70;46.20;;;;;;4993615;28;20038;-72
2021/03/29 00:16:37;;;;;;;8.50;5.47;;;15.60;45.70;;;;;;5001167;28;20053;-71
2021/03/29 00:19:06;;;;;;;8.75;5.72;;;15.60;46.20;;;;;;4997235;28;20037;-71
2021/03/29 00:21:33;;;;;;;6.75;5.25;;;15.60;46.40;;;;;;4999818;28;20031;-69
2021/03/29 00:23:59;;;;;;;8.57;6.20;;;15.50;46.50;;;;;;5004896;28;20100;-71
2021/03/29 00:26:25;;;;;;;10.27;6.25;;;15.50;46.60;;;;;;5001513;28;20116;-71
2021/03/29 00:28:50;;;;;;;8.02;5.75;;;15.60;46.30;;;;;;5004802;28;20038;-71
2021/03/29 00:31:16;;;;;;;8.80;6.60;;;15.40;46.00;;;;;;4998028;28;20043;-72
2021/03/29 00:33:44;;;;;;;10.02;6.80;;;15.50;46.70;;;;;;5006637;28;20037;-71
2021/03/29 00:36:11;;;;;;;10.43;7.05;;;15.50;46.70;;;;;;5000065;28;20510;-71
2021/03/29 00:38:38;;;;;;;7.30;6.47;;;15.50;46.80;;;;;;5012970;28;20042;-71
2021/03/29 00:41:10;;;;;;;9.15;6.60;;;15.50;46.60;;;;;;5001190;28;20083;-71
2021/03/29 00:43:41;;;;;;;11.50;7.53;;;15.50;46.30;;;;;;5002374;28;20108;-71
2021/03/29 00:46:08;;;;;;;8.02;7.15;;;15.40;46.80;;;;;;4994207;28;20030;-71
2021/03/29 00:48:35;;;;;;;8.90;6.53;;;15.50;46.80;;;;;;4998777;28;20463;-71
2021/03/29 00:51:19;;;;;;;11.55;7.63;;;15.40;47.00;;;;;;4995556;28;20531;-70
2021/03/29 00:53:47;;;;;;;11.00;7.78;;;15.40;47.30;;;;;;4995649;28;20369;-71
2021/03/29 00:56:14;;;;;;;10.35;7.93;;;15.40;47.00;;;;;;4996533;28;20045;-70
2021/03/29 00:58:41;;;;;;;12.05;8.98;;;15.40;47.20;;;;;;5004718;28;20069;-70
2021/03/29 01:01:21;;;;;;;10.63;7.88;;;15.40;47.50;;;;;;4999056;28;20095;-70
2021/03/29 01:03:53;;;;;;;11.00;9.65;;;15.40;48.00;;;;;;5001440;28;20047;-71
2021/03/29 01:06:21;;;;;;;14.25;9.20;;;15.40;47.80;;;;;;4998297;28;20473;-71
2021/03/29 01:08:50;;;;;;;11.27;8.38;;;15.40;47.70;;;;;;5002069;28;20400;-71
2021/03/29 01:11:21;;;;;;;10.75;7.97;;;15.40;48.00;;;;;;5003285;28;20037;-71
2021/03/29 01:13:57;;;;;;;12.25;9.30;;;15.30;48.00;;;;;;5001843;28;20038;-72
2021/03/29 01:16:25;;;;;;;14.20;9.50;;;15.30;48.20;;;;;;4996400;28;20129;-72
2021/03/29 01:18:55;;;;;;;12.55;8.15;;;15.30;48.00;;;;;;5005146;28;20916;-72
2021/03/29 01:21:40;;;;;;;10.57;8.65;;;15.30;48.20;;;;;;5002692;28;20125;-72
2021/03/29 01:24:15;;;;;;;12.43;8.30;;;15.40;49.00;;;;;;4999451;28;20133;-71
2021/03/29 01:26:46;;;;;;;12.43;8.30;;;15.30;48.20;;;;;;5007545;28;20480;-72
2021/03/29 01:29:15;;;;;;;11.60;8.30;;;15.20;48.30;;;;;;4999659;28;20034;-71
2021/03/29 01:31:42;;;;;;;10.10;7.45;;;15.20;48.60;;;;;;4998209;28;20117;-71
2021/03/29 01:34:11;;;;;;;14.15;7.28;;;15.20;48.50;;;;;;5000545;28;20034;-71
2021/03/29 01:36:39;;;;;;;10.82;8.10;;;15.30;48.50;;;;;;5004410;28;20448;-70
2021/03/29 01:39:06;;;;;;;9.35;7.25;;;15.20;47.80;;;;;;5001903;28;20503;-70
2021/03/29 01:41:32;;;;;;;9.05;7.55;;;15.20;48.10;;;;;;5005095;28;20088;-70
2021/03/29 01:43:59;;;;;;;10.52;7.43;;;15.20;48.30;;;;;;5003402;28;20038;-71
2021/03/29 01:46:25;;;;;;;8.73;7.22;;;15.20;48.50;;;;;;5002566;28;20038;-71
2021/03/29 01:48:52;;;;;;;9.70;8.05;;;15.20;48.70;;;;;;5002894;28;20428;-71
2021/03/29 01:51:18;;;;;;;9.45;7.53;;;15.20;49.00;;;;;;5008762;28;20053;-71
2021/03/29 01:53:45;;;;;;;11.95;8.20;;;15.20;48.60;;;;;;5005422;28;20403;-71
2021/03/29 01:56:12;;;;;;;10.63;8.25;;;15.20;48.60;;;;;;5004685;28;20038;-71
2021/03/29 01:58:37;;;;;;;12.57;8.18;;;15.20;48.80;;;;;;5005015;28;20077;-71
2021/03/29 02:01:07;;;;;;;13.82;10.05;;;15.20;48.70;;;;;;5002667;28;20078;-70
2021/03/29 02:03:34;;;;;;;13.90;9.73;;;15.20;49.00;;;;;;5002398;28;20050;-69
2021/03/29 02:06:00;;;;;;;14.25;10.43;;;15.10;49.20;;;;;;5004390;28;20061;-71
2021/03/29 02:08:26;;;;;;;13.18;10.80;;;15.20;49.10;;;;;;5002028;28;20511;-71
2021/03/29 02:10:53;;;;;;;13.90;10.43;;;15.10;49.40;;;;;;5003182;28;20051;-71
2021/03/29 02:13:26;;;;;;;14.23;9.98;;;15.00;49.50;;;;;;5002645;28;20093;-72
2021/03/29 02:15:57;;;;;;;14.00;10.48;;;15.10;49.80;;;;;;5006402;28;20046;-72
2021/03/29 02:18:28;;;;;;;14.25;10.63;;;15.10;50.10;;;;;;5011883;28;20507;-72
2021/03/29 02:20:59;;;;;;;13.68;10.07;;;15.00;50.00;;;;;;5004324;28;20053;-72
2021/03/29 02:23:26;;;;;;;13.07;9.98;;;15.00;50.20;;;;;;5003937;28;20061;-72
2021/03/29 02:25:52;;;;;;;14.02;10.15;;;15.00;50.10;;;;;;5002000;28;20110;-72
2021/03/29 02:28:19;;;;;;;12.70;10.63;;;15.00;50.10;;;;;;5003119;28;20035;-71
2021/03/29 02:30:46;;;;;;;13.18;10.45;;;15.00;50.00;;;;;;5002274;28;20116;-70
2021/03/29 02:33:14;;;;;;;12.88;10.30;;;15.00;50.00;;;;;;5005053;28;20038;-71
2021/03/29 02:35:41;;;;;;;11.70;10.35;;;15.00;50.50;;;;;;5001375;28;20129;-70
2021/03/29 02:38:11;;;;;;;13.18;10.35;;;14.90;50.40;;;;;;5005926;28;20057;-71
2021/03/29 02:40:37;;;;;;;11.05;9.35;;;14.90;50.40;;;;;;5002209;28;20046;-71
2021/03/29 02:43:04;;;;;;;14.10;10.45;;;14.90;50.60;;;;;;5003197;28;20062;-70
2021/03/29 02:45:36;;;;;;;11.25;9.65;;;14.90;50.40;;;;;;5003920;28;20037;-71
2021/03/29 02:48:08;;;;;;;15.43;10.57;;;14.90;50.90;;;;;;5006073;28;20079;-71
2021/03/29 02:50:37;;;;;;;15.52;10.52;;;14.90;50.40;;;;;;5002150;28;20037;-71
2021/03/29 02:53:07;;;;;;;13.35;9.70;;;14.90;50.70;;;;;;5008427;28;20048;-70
2021/03/29 02:55:33;;;;;;;11.88;10.10;;;14.80;50.10;;;;;;4996411;28;20034;-70
2021/03/29 02:58:01;;;;;;;12.43;10.05;;;14.90;50.30;;;;;;5000970;28;20084;-71
2021/03/29 03:00:28;;;;;;;13.45;9.30;;;14.90;50.40;;;;;;5001099;28;20108;-72
2021/03/29 03:02:56;;;;;;;14.27;10.48;;;14.80;50.20;;;;;;5002319;28;20065;-72
2021/03/29 03:05:29;;;;;;;11.93;9.52;;;14.80;50.30;;;;;;5006635;28;20042;-71
2021/03/29 03:07:56;;;;;;;13.73;10.73;;;14.80;50.00;;;;;;5007292;28;20427;-72
2021/03/29 03:10:21;;;;;;;11.27;9.95;;;14.80;50.20;;;;;;5003653;28;20091;-71
2021/03/29 03:12:48;;;;;;;14.60;10.60;;;14.80;50.60;;;;;;5000673;28;20133;-71
2021/03/29 03:15:17;;;;;;;14.68;10.68;;;14.80;50.60;;;;;;5002909;28;20547;-71
2021/03/29 03:17:45;;;;;;;13.80;11.63;;;14.80;50.60;;;;;;5003953;28;20088;-71
2021/03/29 03:20:13;;;;;;;14.45;11.48;;;14.80;51.00;;;;;;5003913;28;20633;-71
2021/03/29 03:23:04;;;;;;;12.43;10.95;;;14.70;51.10;;;;;;4997382;28;20400;-71
2021/03/29 03:25:36;;;;;;;14.60;11.10;;;14.60;51.40;;;;;;5002510;28;20045;-71
2021/03/29 03:28:07;;;;;;;14.43;12.85;;;14.70;51.10;;;;;;5007973;28;20045;-71
2021/03/29 03:30:35;;;;;;;17.77;13.68;;;14.60;51.20;;;;;;5007493;28;20037;-68
2021/03/29 03:33:02;;;;;;;15.10;13.23;;;14.50;51.60;;;;;;5013904;28;20037;-71
2021/03/29 03:35:29;;;;;;;17.67;13.95;;;14.50;51.40;;;;;;5007565;28;20121;-71
2021/03/29 03:37:57;;;;;;;17.10;15.27;;;14.50;51.30;;;;;;5001858;28;20387;-71
2021/03/29 03:40:23;;;;;;;22.40;16.85;;;14.50;51.70;;;;;;5006780;28;20494;-70
2021/03/29 03:42:52;;;;;;;19.52;15.00;;;14.40;52.00;;;;;;5003395;28;20038;-70
2021/03/29 03:45:22;;;;;;;19.30;15.65;;;14.40;51.80;;;;;;4999049;28;20049;-70
2021/03/29 03:47:48;;;;;;;20.60;14.65;;;14.50;51.80;;;;;;5002118;28;20029;-70
2021/03/29 03:50:14;;;;;;;19.45;15.85;;;14.40;52.10;;;;;;5004774;28;20037;-70
2021/03/29 03:52:41;;;;;;;19.52;14.63;;;14.40;52.10;;;;;;5003368;28;20046;-69
2021/03/29 03:55:09;;;;;;;20.20;16.38;;;14.40;52.10;;;;;;5004096;28;20048;-69
2021/03/29 03:57:36;;;;;;;19.98;15.48;;;14.40;52.00;;;;;;4997162;28;21027;-69
2021/03/29 04:00:06;;;;;;;17.73;14.60;;;14.40;52.30;;;;;;5001456;28;20169;-70
2021/03/29 04:02:32;;;;;;;19.45;15.18;;;14.40;52.40;;;;;;5000013;28;20038;-71
2021/03/29 04:04:57;;;;;;;18.55;15.48;;;14.40;52.60;;;;;;5001572;28;20045;-70
2021/03/29 04:07:23;;;;;;;20.67;15.18;;;14.40;52.50;;;;;;5004884;28;20041;-70
2021/03/29 04:09:54;;;;;;;16.85;15.07;;;14.30;52.50;;;;;;5000423;28;20050;-70
2021/03/29 04:12:19;;;;;;;18.45;15.38;;;14.30;52.50;;;;;;5005421;28;20125;-70
2021/03/29 04:14:45;;;;;;;18.92;16.15;;;14.30;52.50;;;;;;5001912;28;20149;-70
2021/03/29 04:17:10;;;;;;;17.45;15.43;;;14.30;52.50;;;;;;5006398;28;20121;-71
2021/03/29 04:19:36;;;;;;;19.02;16.90;;;14.30;52.40;;;;;;4999137;28;20042;-69
2021/03/29 04:22:04;;;;;;;20.00;15.80;;;14.30;52.50;;;;;;5009488;28;20054;-70
2021/03/29 04:24:30;;;;;;;20.05;16.67;;;14.30;52.60;;;;;;5001265;28;20112;-70
2021/03/29 04:26:55;;;;;;;21.70;17.00;;;14.20;52.70;;;;;;5005045;28;20042;-70
2021/03/29 04:29:21;;;;;;;24.67;16.77;;;14.20;52.50;;;;;;5001833;28;20129;-70
2021/03/29 04:31:47;;;;;;;23.20;17.00;;;14.20;52.60;;;;;;5005490;28;20061;-70
2021/03/29 04:34:12;;;;;;;23.08;18.08;;;14.20;52.40;;;;;;4991955;28;20049;-70
2021/03/29 04:36:38;;;;;;;19.73;16.83;;;14.20;52.40;;;;;;5004813;28;20402;-69
2021/03/29 04:39:04;;;;;;;24.80;18.15;;;14.20;52.60;;;;;;5000096;28;20045;-69
2021/03/29 04:41:30;;;;;;;26.40;17.58;;;14.10;52.80;;;;;;5006821;28;20038;-69
2021/03/29 04:43:55;;;;;;;24.00;18.00;;;14.10;52.50;;;;;;4999636;28;20104;-69
2021/03/29 04:46:21;;;;;;;24.98;18.08;;;14.10;52.70;;;;;;5000272;28;20187;-69
2021/03/29 04:48:47;;;;;;;24.58;19.58;;;14.10;52.90;;;;;;5000555;28;20080;-69
2021/03/29 04:51:13;;;;;;;23.42;19.70;;;14.10;53.10;;;;;;4995254;28;20052;-69
2021/03/29 04:53:39;;;;;;;27.45;23.05;;;14.00;53.60;;;;;;5004115;28;20073;-69
2021/03/29 04:56:05;;;;;;;28.55;23.00;;;14.10;53.10;;;;;;5000747;28;20069;-69
2021/03/29 04:58:30;;;;;;;27.15;23.90;;;13.90;53.40;;;;;;5005558;28;20045;-69
2021/03/29 05:00:56;;;;;;;28.75;23.65;;;14.00;53.50;;;;;;4999838;28;20038;-69
2021/03/29 05:03:22;;;;;;;31.05;24.52;;;13.90;53.60;;;;;;5004621;28;20046;-69
2021/03/29 05:05:47;;;;;;;32.13;23.98;;;13.90;53.80;;;;;;5002347;28;20046;-71
2021/03/29 05:08:13;;;;;;;32.13;24.23;;;13.90;54.00;;;;;;5003804;28;20117;-69
2021/03/29 05:10:40;;;;;;;29.95;23.55;;;13.90;53.90;;;;;;4996274;28;20037;-70
2021/03/29 05:13:07;;;;;;;32.25;24.90;;;13.80;54.10;;;;;;5006901;28;20474;-69
2021/03/29 05:15:32;;;;;;;30.17;24.60;;;13.80;54.20;;;;;;5002099;28;20034;-70
2021/03/29 05:17:59;;;;;;;32.70;25.17;;;13.90;54.30;;;;;;5009962;28;20495;-70
2021/03/29 05:20:24;;;;;;;28.85;25.17;;;13.90;53.90;;;;;;5002035;28;20030;-70
2021/03/29 05:22:50;;;;;;;30.65;24.27;;;13.90;54.10;;;;;;5000648;28;20037;-70
2021/03/29 05:25:16;;;;;;;29.98;23.35;;;13.90;54.00;;;;;;5007246;28;20046;-69
2021/03/29 05:27:42;;;;;;;31.13;24.70;;;13.90;54.30;;;;;;5001118;28;20081;-69
2021/03/29 05:30:08;;;;;;;32.15;25.13;;;13.90;54.20;;;;;;5009883;28;20136;-69
2021/03/29 05:32:34;;;;;;;35.08;24.63;;;13.90;54.30;;;;;;4993757;28;20048;-62
2021/03/29 05:35:01;;;;;;;37.60;26.13;;;13.90;54.30;;;;;;5008728;28;20030;-70
2021/03/29 05:37:27;;;;;;;33.33;24.17;;;13.80;54.40;;;;;;5002451;28;20113;-70
2021/03/29 05:39:57;;;;;;;29.02;25.20;;;13.90;54.10;;;;;;5003811;28;20043;-69
2021/03/29 05:42:25;;;;;;;28.60;24.50;;;13.90;54.40;;;;;;5003719;28;20068;-69
2021/03/29 05:44:53;;;;;;;35.15;25.30;;;13.90;54.30;;;;;;5004430;28;20056;-69
2021/03/29 05:47:21;;;;;;;30.50;24.90;;;13.90;54.00;;;;;;5002280;28;20061;-69
2021/03/29 05:49:47;;;;;;;31.20;26.02;;;13.90;54.30;;;;;;5001847;28;20165;-69
2021/03/29 05:52:13;;;;;;;34.78;25.98;;;13.90;54.50;;;;;;5002069;28;20121;-69
2021/03/29 05:54:39;;;;;;;28.80;25.00;;;13.90;54.20;;;;;;5004823;28;20480;-69
2021/03/29 05:57:05;;;;;;;31.20;25.45;;;14.00;54.10;;;;;;5003638;28;20049;-68
2021/03/29 05:59:40;;;;;;;35.00;25.35;;;13.90;54.10;;;;;;5007396;28;20041;-70
2021/03/29 06:02:05;;;;;;;38.30;25.60;;;13.90;54.40;;;;;;5010503;28;20077;-70
2021/03/29 06:04:45;;;;;;;35.72;27.63;;;13.90;54.30;;;;;;5006319;28;20050;-69
2021/03/29 06:07:13;;;;;;;34.50;26.33;;;13.90;54.70;;;;;;4979462;28;20030;-69
2021/03/29 06:09:39;;;;;;;31.80;26.90;;;13.80;54.50;;;;;;5006664;28;20038;-69
2021/03/29 06:12:05;;;;;;;33.67;26.58;;;13.80;54.40;;;;;;5008531;28;20030;-68
2021/03/29 06:14:31;;;;;;;36.50;25.70;;;13.90;54.20;;;;;;5005685;28;20052;-70
2021/03/29 06:17:12;;;;;;;35.35;26.00;;;13.90;54.10;;;;;;5006533;28;20050;-70
2021/03/29 06:19:53;;;;;;;34.72;26.35;;;13.90;54.20;;;;;;5003104;28;20120;-69
2021/03/29 06:22:47;;;;;;;39.20;28.17;;;14.00;54.40;;;;;;5008596;28;20076;-70
2021/03/29 06:25:18;;;;;;;31.23;25.02;;;14.00;54.60;;;;;;4962888;28;20093;-70
2021/03/29 06:27:45;;;;;;;39.67;28.58;;;14.00;54.30;;;;;;5008189;28;20406;-70
2021/03/29 06:30:27;;;;;;;35.28;27.63;;;14.00;54.00;;;;;;5003058;28;20053;-67
2021/03/29 06:33:05;;;;;;;38.78;29.15;;;14.00;54.10;;;;;;5003745;28;20041;-69
2021/03/29 06:35:36;;;;;;;37.58;28.60;;;14.00;54.00;;;;;;4995932;28;20109;-69
2021/03/29 06:38:08;;;;;;;37.67;28.50;;;14.00;54.30;;;;;;4994833;28;20041;-69
2021/03/29 06:40:36;;;;;;;35.10;26.48;;;14.00;54.00;;;;;;4989873;28;20073;-69
2021/03/29 06:43:15;;;;;;;37.35;28.40;;;14.00;54.00;;;;;;4996307;28;20070;-69
2021/03/29 06:45:41;;;;;;;34.55;27.75;;;14.10;54.10;;;;;;4970548;28;20053;-69
2021/03/29 06:48:17;;;;;;;41.65;30.50;;;14.10;53.80;;;;;;4995001;28;20046;-69
2021/03/29 06:50:42;;;;;;;33.92;27.65;;;14.20;53.80;;;;;;4995217;28;20046;-69
2021/03/29 06:53:08;;;;;;;37.85;29.88;;;14.20;53.60;;;;;;4998641;28;20049;-69
2021/03/29 06:55:34;;;;;;;35.15;29.50;;;14.20;53.60;;;;;;4999749;28;20053;-69
2021/03/29 06:58:03;;;;;;;34.88;28.58;;;14.20;53.50;;;;;;5006067;28;20116;-69
2021/03/29 07:00:34;;;;;;;35.22;27.75;;;14.20;53.50;;;;;;4996109;28;20050;-69
2021/03/29 07:03:05;;;;;;;38.60;28.90;;;14.20;53.40;;;;;;4995704;28;20042;-69
2021/03/29 07:05:31;;;;;;;34.83;28.35;;;14.40;53.40;;;;;;5001835;28;20084;-69
2021/03/29 07:08:02;;;;;;;36.67;27.02;;;14.30;53.30;;;;;;5000929;28;20041;-69
2021/03/29 07:10:28;;;;;;;37.10;27.58;;;14.40;53.60;;;;;;4997879;28;20518;-70
2021/03/29 07:12:54;;;;;;;33.25;27.67;;;14.40;53.30;;;;;;5008251;28;20045;-69
2021/03/29 07:15:21;;;;;;;40.55;28.98;;;14.50;53.10;;;;;;4996574;28;20622;-69
2021/03/29 07:17:48;;;;;;;36.83;28.23;;;14.50;52.90;;;;;;4996748;28;20125;-68
2021/03/29 07:20:16;;;;;;;37.03;28.17;;;14.60;53.10;;;;;;4995037;28;20344;-69
2021/03/29 07:22:43;;;;;;;36.53;29.15;;;14.60;52.80;;;;;;4999232;28;20141;-68
2021/03/29 07:25:15;;;;;;;36.30;29.73;;;14.60;53.00;;;;;;5002536;28;20037;-68
2021/03/29 07:27:52;;;;;;;42.45;30.15;;;14.60;53.00;;;;;;5001868;28;20041;-69
2021/03/29 07:30:38;;;;;;;41.03;31.45;;;14.60;52.80;;;;;;4997085;28;20042;-69
2021/03/29 07:33:04;;;;;;;38.65;30.83;;;14.70;52.80;;;;;;4994051;28;20038;-69
2021/03/29 07:35:49;;;;;;;46.20;32.78;;;14.80;52.90;;;;;;4996210;28;20045;-69
2021/03/29 07:38:23;;;;;;;40.97;31.88;;;14.90;52.30;;;;;;4972146;28;20034;-69
2021/03/29 07:40:54;;;;;;;41.88;35.08;;;14.90;52.10;;;;;;4998031;28;20076;-69
2021/03/29 07:43:25;;;;;;;43.58;33.85;;;14.90;52.30;;;;;;4994689;28;20065;-69
2021/03/29 07:45:54;;;;;;;40.95;32.88;;;15.00;52.10;;;;;;4994555;28;20074;-69
2021/03/29 07:48:35;;;;;;;45.00;33.65;;;15.00;52.00;;;;;;4999028;28;20057;-69
2021/03/29 07:51:06;;;;;;;44.60;35.25;;;15.10;52.10;;;;;;4994634;28;20184;-69
2021/03/29 07:53:45;;;;;;;47.53;34.03;;;15.10;52.10;;;;;;4990119;28;20066;-70
2021/03/29 07:56:32;;;;;;;46.10;35.55;;;15.20;52.10;;;;;;4971657;28;20113;-69
2021/03/29 07:58:57;;;;;;;43.83;33.25;;;15.20;51.80;;;;;;4992679;28;20119;-69
2021/03/29 08:01:23;;;;;;;41.30;32.95;;;15.20;51.40;;;;;;4993895;28;20120;-69
2021/03/29 08:03:55;;;;;;;42.10;32.90;;;15.20;51.30;;;;;;4992891;28;20188;-69
2021/03/29 08:06:42;;;;;;;42.17;33.30;;;15.30;51.70;;;;;;5000384;28;20550;-68
2021/03/29 08:09:09;;;;;;;45.83;34.53;;;15.30;52.00;;;;;;4986446;28;20042;-68
2021/03/29 08:12:02;;;;;;;44.65;34.85;;;15.30;51.80;;;;;;4997035;28;20045;-68
2021/03/29 08:14:35;;;;;;;41.28;32.25;;;15.40;52.10;;;;;;4969074;28;20506;-69
2021/03/29 08:17:41;;;;;;;41.85;33.05;;;15.60;51.40;;;;;;4999101;28;20448;-68
2021/03/29 08:20:16;;;;;;;;;;;15.60;51.20;;;;;;4988856;28;20414;-68
2021/03/29 08:22:42;;;;;;;47.75;33.45;;;15.60;51.00;;;;;;4989053;28;19920;-68
2021/03/29 08:25:28;;;;;;;43.67;33.35;;;15.60;50.60;;;;;;4994486;28;20054;-67
2021/03/29 08:27:56;;;;;;;45.38;34.63;;;15.70;50.80;;;;;;4989434;28;20076;-67
2021/03/29 08:30:22;;;;;;;43.70;34.75;;;15.70;50.90;;;;;;4995071;28;20554;-68
2021/03/29 08:32:48;;;;;;;41.08;34.30;;;15.80;50.60;;;;;;5009135;28;20034;-68
2021/03/29 08:35:17;;;;;;;45.45;34.60;;;15.80;50.30;;;;;;4988679;28;20980;-68
2021/03/29 08:37:47;;;;;;;41.78;34.45;;;15.90;50.40;;;;;;4989684;28;20042;-67
2021/03/29 08:40:17;;;;;;;41.80;34.50;;;15.90;49.50;;;;;;5000825;28;20042;-68
2021/03/29 08:42:45;;;;;;;43.40;35.00;;;16.00;49.70;;;;;;4993847;28;20530;-69
2021/03/29 08:45:16;;;;;;;39.85;35.58;;;16.10;49.50;;;;;;4990244;28;20050;-69
2021/03/29 08:47:44;;;;;;;40.28;34.00;;;16.10;49.40;;;;;;4996702;28;20089;-67
2021/03/29 08:50:15;;;;;;;40.85;34.67;;;16.10;49.00;;;;;;4999235;28;20121;-68
2021/03/29 08:52:44;;;;;;;46.70;36.20;;;16.20;49.00;;;;;;5000629;28;20038;-67
2021/03/29 08:55:31;;;;;;;41.72;35.40;;;16.30;48.70;;;;;;5002010;28;20033;-68
2021/03/29 08:57:58;;;;;;;42.55;34.08;;;16.30;48.50;;;;;;5001971;28;20049;-69
2021/03/29 09:00:29;;;;;;;49.90;35.78;;;16.30;48.40;;;;;;4991441;28;20046;-69
2021/03/29 09:02:55;;;;;;;43.40;33.40;;;16.30;48.30;;;;;;5001600;28;20034;-68
2021/03/29 09:05:25;;;;;;;41.67;33.72;;;16.40;48.20;;;;;;4995749;28;20125;-68
2021/03/29 09:07:52;;;;;;;41.35;33.28;;;16.50;48.10;;;;;;5001800;28;20475;-69
2021/03/29 09:10:24;;;;;;;39.45;33.47;;;16.70;47.60;;;;;;4998142;28;20116;-68
2021/03/29 09:12:57;;;;;;;38.38;33.10;;;16.70;47.10;;;;;;4997372;28;20081;-69
2021/03/29 09:15:24;;;;;;;42.58;33.25;;;16.80;47.00;;;;;;4993123;28;20041;-68
2021/03/29 09:18:14;;;;;;;41.22;34.67;;;16.70;47.00;;;;;;4999227;28;20029;-68
2021/03/29 09:20:48;;;;;;;46.88;35.38;;;16.80;46.80;;;;;;4993374;28;20503;-67
2021/03/29 09:23:15;;;;;;;38.92;33.08;;;16.80;47.30;;;;;;4999713;28;20042;-67
2021/03/29 09:25:44;;;;;;;44.20;34.38;;;17.00;47.90;;;;;;4999493;28;20129;-68
2021/03/29 09:28:45;;;;;;;45.58;34.72;;;17.10;46.90;;;;;;5008969;28;20114;-67
2021/03/29 09:31:24;;;;;;;43.10;34.08;;;17.00;47.20;;;;;;5005732;28;20096;-68
2021/03/29 09:33:52;;;;;;;44.60;33.47;;;17.10;47.30;;;;;;5006141;28;20038;-68
2021/03/29 09:36:26;;;;;;;45.97;35.63;;;17.10;47.00;;;;;;5004745;28;20085;-68
2021/03/29 09:38:54;;;;;;;;;;;17.30;46.60;;;;;;5004835;28;20034;-68
2021/03/29 09:41:31;;;;;;;42.90;34.22;;;17.30;46.90;;;;;;5005956;28;19920;-68
2021/03/29 09:43:58;;;;;;;44.20;33.45;;;17.30;46.70;;;;;;5011854;28;20145;-69
2021/03/29 09:46:32;;;;;;;36.30;31.27;;;17.40;46.10;;;;;;5006793;28;20144;-68
2021/03/29 09:49:17;;;;;;;42.47;32.50;;;17.50;45.90;;;;;;5010947;28;20044;-69
2021/03/29 09:51:45;;;;;;;39.28;31.95;;;17.50;45.00;;;;;;5007132;28;20157;-69
2021/03/29 09:54:21;;;;;;;34.22;26.70;;;17.50;45.60;;;;;;5009999;28;20038;-68
2021/03/29 09:56:46;;;;;;;29.60;25.92;;;17.80;43.70;;;;;;5001965;28;20045;-69
2021/03/29 09:59:12;;;;;;;37.83;26.35;;;17.80;43.90;;;;;;5004687;28;20253;-68
2021/03/29 10:01:43;;;;;;;31.67;25.27;;;17.80;44.00;;;;;;5006809;28;20034;-70
2021/03/29 10:04:13;;;;;;;35.28;26.83;;;18.00;43.90;;;;;;5006732;28;20046;-69
2021/03/29 10:06:50;;;;;;;29.77;26.13;;;18.00;44.30;;;;;;5003437;28;20132;-69
2021/03/29 10:09:35;;;;;;;32.85;24.58;;;18.10;43.20;;;;;;5010621;28;20419;-69
2021/03/29 10:12:02;;;;;;;29.20;24.15;;;18.10;43.50;;;;;;5000944;28;20041;-69
2021/03/29 10:14:35;;;;;;;26.33;21.08;;;18.10;43.90;;;;;;5004663;28;20041;-69
2021/03/29 10:17:02;;;;;;;24.90;20.85;;;18.20;43.00;;;;;;5012956;28;20487;-69
2021/03/29 10:19:33;;;;;;;23.75;18.95;;;18.30;42.90;;;;;;5007039;28;20049;-69
2021/03/29 10:22:11;;;;;;;22.48;18.50;;;18.30;42.50;;;;;;5006907;28;20052;-69
2021/03/29 10:24:56;;;;;;;17.17;14.68;;;18.30;41.90;;;;;;4994493;28;20065;-70
2021/03/29 10:27:22;;;;;;;19.10;14.15;;;18.50;41.90;;;;;;4969548;28;20046;-70
2021/03/29 10:29:48;;;;;;;15.65;11.85;;;18.60;41.90;;;;;;4991857;28;20043;-69
2021/03/29 10:32:19;;;;;;;16.42;11.20;;;18.60;41.80;;;;;;4998839;28;20050;-69
2021/03/29 10:34:47;;;;;;;12.80;9.98;;;18.70;39.90;;;;;;4991612;28;20137;-69
2021/03/29 10:37:24;;;;;;;9.02;8.13;;;18.80;40.00;;;;;;4995064;28;20046;-70
2021/03/29 10:39:51;;;;;;;12.38;8.15;;;18.90;38.80;;;;;;4995311;28;20042;-70
2021/03/29 10:42:18;;;;;;;10.00;7.88;;;19.10;38.90;;;;;;5003433;28;20053;-70
2021/03/29 10:44:44;;;;;;;8.68;6.75;;;19.10;39.40;;;;;;4994352;28;20053;-71
2021/03/29 10:47:11;;;;;;;8.15;7.35;;;19.30;38.30;;;;;;4990275;28;20042;-70
2021/03/29 10:49:37;;;;;;;11.30;7.13;;;19.10;40.50;;;;;;4998484;28;20483;-69
2021/03/29 10:52:03;;;;;;;11.02;7.38;;;19.60;43.80;;;;;;5001141;28;20076;-70
2021/03/29 10:54:29;;;;;;;12.32;7.32;;;19.30;37.80;;;;;;4996866;28;20042;-71
2021/03/29 10:56:55;;;;;;;9.38;6.70;;;19.30;38.50;;;;;;4996525;28;20064;-71
2021/03/29 10:59:20;;;;;;;8.88;5.68;;;19.30;38.00;;;;;;4993147;28;20038;-70
2021/03/29 11:01:46;;;;;;;10.45;5.57;;;19.40;37.30;;;;;;4999100;28;20499;-70
2021/03/29 11:04:12;;;;;;;9.02;6.25;;;19.50;37.40;;;;;;4998719;28;20049;-70
2021/03/29 11:06:37;;;;;;;13.80;5.78;;;19.80;37.00;;;;;;4999706;28;20038;-70
2021/03/29 11:09:03;;;;;;;11.30;5.68;;;19.80;36.10;;;;;;4996072;28;20042;-71
2021/03/29 11:11:29;;;;;;;9.40;6.13;;;19.90;36.90;;;;;;4994564;28;21013;-71
2021/03/29 11:13:54;;;;;;;9.18;6.30;;;19.90;36.50;;;;;;4993076;28;20052;-71
2021/03/29 11:16:22;;;;;;;7.45;5.80;;;20.00;36.40;;;;;;4992097;28;20033;-71
2021/03/29 11:18:48;;;;;;;7.13;6.38;;;19.90;36.50;;;;;;5005535;28;20129;-70
2021/03/29 11:21:13;;;;;;;10.40;5.75;;;20.10;36.20;;;;;;4997684;28;20426;-71
2021/03/29 11:23:39;;;;;;;8.82;5.90;;;20.20;35.80;;;;;;4995696;28;20064;-68
2021/03/29 11:26:04;;;;;;;11.82;6.13;;;20.30;35.20;;;;;;4993198;28;20038;-71
2021/03/29 11:28:30;;;;;;;12.32;6.40;;;20.30;35.30;;;;;;4999085;28;20066;-71
2021/03/29 11:30:56;;;;;;;8.88;6.00;;;20.50;35.70;;;;;;4997172;28;20569;-71
2021/03/29 11:33:22;;;;;;;9.82;6.55;;;20.30;35.60;;;;;;4997756;28;20027;-71
2021/03/29 11:35:48;;;;;;;8.95;5.47;;;20.50;35.40;;;;;;4992069;28;20037;-71
2021/03/29 11:38:13;;;;;;;8.70;5.95;;;20.60;36.00;;;;;;4995971;28;20039;-68
2021/03/29 11:40:39;;;;;;;8.38;6.15;;;20.60;35.70;;;;;;4992933;28;20080;-70
2021/03/29 11:43:05;;;;;;;8.77;6.45;;;20.90;34.70;;;;;;4994078;28;20121;-71
2021/03/29 11:45:30;;;;;;;10.25;6.43;;;20.90;34.30;;;;;;4996237;28;20425;-70
2021/03/29 11:47:57;;;;;;;10.43;6.50;;;20.90;34.60;;;;;;4997879;28;20062;-70
2021/03/29 11:50:22;;;;;;;7.45;6.60;;;21.10;34.20;;;;;;5000695;28;20030;-69
2021/03/29 11:52:48;;;;;;;8.90;6.40;;;21.40;34.30;;;;;;4995842;28;20453;-70
2021/03/29 11:55:14;;;;;;;12.15;6.93;;;21.30;33.30;;;;;;4999369;28;20073;-71
2021/03/29 11:57:41;;;;;;;13.43;6.60;;;21.40;34.10;;;;;;4993615;28;20697;-70
2021/03/29 12:00:12;;;;;;;11.77;6.25;;;21.30;33.40;;;;;;4998440;28;20061;-72
2021/03/29 12:02:43;;;;;;;7.90;6.00;;;21.80;34.20;;;;;;4991865;28;20049;-71
2021/03/29 12:05:48;;;;;;;9.10;6.53;;;21.70;33.50;;;;;;4996992;28;20092;-71
2021/03/29 12:08:07;;;;;;;9.45;5.97;;;21.60;34.40;;;;;;4971549;28;20164;-70
2021/03/29 12:13:18;;;;;;;7.20;5.80;;;24.90;27.00;;;;;;4967749;28;20208;-71
2021/03/29 12:15:49;;;;;;;8.18;6.75;;;27.30;27.00;;;;;;4992873;28;20445;-71
2021/03/29 12:18:19;;;;;;;9.00;6.25;;;28.50;24.90;;;;;;4990984;28;20586;-71
2021/03/29 12:20:46;;;;;;;7.38;6.13;;;;;;;;;;4997483;28;20038;-70
2021/03/29 12:23:13;;;;;;;11.07;6.10;;;34.50;19.90;;;;;;4993387;28;20113;-70
2021/03/29 12:25:43;;;;;;;10.82;6.45;;;35.20;18.10;;;;;;4991932;28;20053;-72
2021/03/29 12:28:09;;;;;;;10.40;7.25;;;36.30;17.80;;;;;;4997852;28;20030;-72
2021/03/29 12:30:38;;;;;;;16.15;7.80;;;37.10;17.80;;;;;;4995538;28;20117;-71
2021/03/29 12:33:04;;;;;;;9.98;6.93;;;38.30;16.60;;;;;;4995462;28;20084;-71
2021/03/29 12:35:30;;;;;;;9.30;6.38;;;37.20;16.50;;;;;;4998856;28;20443;-71
2021/03/29 12:37:56;;;;;;;8.05;6.20;;;38.00;16.40;;;;;;4992268;28;20522;-71
2021/03/29 12:40:28;;;;;;;6.85;6.13;;;36.10;16.10;;;;;;4993059;28;20069;-71
2021/03/29 12:45:24;;;;;;;9.48;6.65;;;36.40;15.90;;;;;;4993854;28;20042;-71
2021/03/29 12:47:51;;;;;;;10.13;8.23;;;36.90;16.10;;;;;;4993687;28;20108;-71
2021/03/29 12:50:18;;;;;;;9.38;7.30;;;37.60;16.30;;;;;;4991439;28;20031;-70